Time;durP1;ratioP1;P1;durP2;ratioP2;P2;SDS_P1;SDS_P2;PMS_P1;PMS_P2;Temp;Humidity;BMP_temperature;BMP_pressure;BME280_temperature;BME280_humidity;BME280_pressure;Samples;Min_cycle;Max_cycle;Signal;HPM_P1;HPM_P2
2022/04/11 00:01:03;;;;;;;10.95;5.30;;;22.50;63.00;;;;;;5009810;28;20023;-74
2022/04/11 00:03:30;;;;;;;10.18;4.13;;;22.40;63.00;;;;;;5009699;28;20496;-75
2022/04/11 00:05:57;;;;;;;11.02;3.97;;;22.40;63.00;;;;;;5007965;28;20867;-72
2022/04/11 00:08:24;;;;;;;9.90;4.65;;;22.50;62.90;;;;;;5008682;28;20041;-77
2022/04/11 00:10:50;;;;;;;8.13;4.57;;;22.40;62.90;;;;;;5007927;28;20643;-75
2022/04/11 00:13:21;;;;;;;8.95;4.32;;;22.40;62.90;;;;;;5007429;28;20037;-73
2022/04/11 00:15:48;;;;;;;9.75;3.72;;;22.40;63.00;;;;;;5014757;28;20029;-77
2022/04/11 00:18:14;;;;;;;11.48;3.97;;;22.30;63.00;;;;;;5009363;28;20027;-73
2022/04/11 00:20:41;;;;;;;9.82;4.25;;;22.30;63.20;;;;;;5008919;28;20034;-77
2022/04/11 00:23:08;;;;;;;7.55;3.22;;;22.40;63.20;;;;;;5006736;28;20522;-77
2022/04/11 00:25:34;;;;;;;12.40;3.90;;;22.30;63.20;;;;;;5007264;28;20025;-72
2022/04/11 00:28:01;;;;;;;8.45;3.10;;;22.30;63.20;;;;;;5008506;28;20536;-73
2022/04/11 00:30:32;;;;;;;10.98;4.00;;;22.30;63.20;;;;;;5008881;28;20291;-73
2022/04/11 00:32:59;;;;;;;4.88;3.28;;;22.30;63.30;;;;;;5013739;28;20046;-77
2022/04/11 00:35:25;;;;;;;10.07;3.47;;;22.30;63.30;;;;;;5008443;28;20385;-77
2022/04/11 00:37:52;;;;;;;9.82;4.00;;;22.30;63.50;;;;;;5009380;28;20013;-73
2022/04/11 00:40:19;;;;;;;15.15;3.08;;;22.30;63.50;;;;;;5008258;28;20064;-77
2022/04/11 00:42:49;;;;;;;14.25;4.55;;;22.30;64.60;;;;;;5009051;28;20053;-73
2022/04/11 00:45:17;;;;;;;7.70;3.33;;;22.30;63.90;;;;;;5007234;28;20585;-74
2022/04/11 00:47:45;;;;;;;9.00;3.63;;;22.20;64.60;;;;;;5007702;28;20022;-72
2022/04/11 00:50:14;;;;;;;7.82;3.05;;;22.20;64.00;;;;;;5019615;28;20381;-75
2022/04/11 00:52:48;;;;;;;11.00;3.47;;;22.20;64.10;;;;;;5007947;28;20067;-77
2022/04/11 00:55:16;;;;;;;10.88;3.35;;;22.20;64.20;;;;;;5016377;28;20021;-75
2022/04/11 00:57:43;;;;;;;8.35;3.03;;;22.20;64.20;;;;;;4985275;28;20048;-78
2022/04/11 01:00:13;;;;;;;11.38;4.53;;;22.20;64.30;;;;;;4983986;28;20025;-76
2022/04/11 01:02:39;;;;;;;8.82;4.25;;;22.20;64.40;;;;;;4986552;28;20417;-74
2022/04/11 01:05:09;;;;;;;7.97;3.78;;;22.20;64.40;;;;;;4985144;28;20025;-74
2022/04/11 01:07:37;;;;;;;10.63;3.67;;;22.20;64.40;;;;;;4988145;28;20037;-75
2022/04/11 01:10:08;;;;;;;11.95;5.35;;;22.20;64.50;;;;;;4984248;28;20054;-76
2022/04/11 01:12:34;;;;;;;9.52;4.35;;;22.20;64.60;;;;;;4988519;28;20493;-76
2022/04/11 01:15:01;;;;;;;8.73;4.05;;;22.20;64.60;;;;;;4986627;28;20097;-73
2022/04/11 01:17:38;;;;;;;9.52;4.20;;;22.20;64.70;;;;;;4985725;28;20040;-77
2022/04/11 01:20:13;;;;;;;10.18;4.38;;;22.20;64.80;;;;;;4984650;28;20088;-75
2022/04/11 01:22:40;;;;;;;10.45;3.92;;;22.10;64.90;;;;;;4986810;28;20560;-75
2022/04/11 01:25:08;;;;;;;11.45;4.82;;;22.10;65.00;;;;;;4987131;28;20023;-76
2022/04/11 01:27:35;;;;;;;12.18;4.70;;;22.00;65.10;;;;;;4987149;28;20038;-76
2022/04/11 01:30:01;;;;;;;11.65;3.40;;;22.00;65.20;;;;;;4981412;28;20019;-77
2022/04/11 01:32:28;;;;;;;13.75;4.75;;;22.00;65.50;;;;;;4986144;28;20074;-75
2022/04/11 01:34:56;;;;;;;8.88;4.78;;;22.00;65.40;;;;;;4987756;28;20022;-76
2022/04/11 01:37:23;;;;;;;10.02;3.92;;;22.00;65.50;;;;;;4985778;28;20093;-76
2022/04/11 01:39:50;;;;;;;8.35;2.97;;;21.90;65.50;;;;;;4988871;28;20022;-76
2022/04/11 01:42:17;;;;;;;14.38;3.38;;;21.90;65.60;;;;;;4985203;28;20054;-76
2022/04/11 01:44:44;;;;;;;10.15;3.28;;;21.90;65.70;;;;;;4985410;28;20081;-73
2022/04/11 01:47:10;;;;;;;14.93;3.58;;;21.90;65.80;;;;;;4986092;28;20033;-77
2022/04/11 01:49:37;;;;;;;10.77;5.03;;;21.80;65.80;;;;;;4984661;28;20113;-76
2022/04/11 01:52:04;;;;;;;9.00;3.08;;;21.90;65.80;;;;;;4987229;28;21133;-76
2022/04/11 01:54:31;;;;;;;7.30;3.50;;;21.80;65.80;;;;;;4986994;28;20038;-77
2022/04/11 01:56:58;;;;;;;16.25;3.92;;;21.80;65.80;;;;;;5001878;28;20594;-73
2022/04/11 01:59:24;;;;;;;9.40;2.65;;;21.80;65.90;;;;;;5008263;28;20056;-76
2022/04/11 02:01:51;;;;;;;8.43;3.47;;;21.80;66.00;;;;;;5007275;28;20026;-75
2022/04/11 02:04:17;;;;;;;10.68;3.15;;;21.80;66.00;;;;;;5007295;28;20022;-74
2022/04/11 02:06:44;;;;;;;8.07;3.45;;;21.80;66.10;;;;;;5007141;28;20056;-77
2022/04/11 02:09:11;;;;;;;12.50;3.67;;;21.70;66.10;;;;;;5008247;28;20485;-75
2022/04/11 02:11:37;;;;;;;9.27;4.20;;;21.70;66.10;;;;;;5001491;28;20030;-75
2022/04/11 02:14:04;;;;;;;12.60;4.30;;;21.70;66.20;;;;;;5006693;28;20049;-77
2022/04/11 02:16:31;;;;;;;12.25;4.53;;;21.70;66.20;;;;;;5003764;28;20026;-75
2022/04/11 02:18:57;;;;;;;11.40;5.30;;;21.70;66.30;;;;;;5005391;28;20079;-75
2022/04/11 02:21:24;;;;;;;12.32;4.22;;;21.70;66.30;;;;;;5005569;28;20026;-75
2022/04/11 02:23:50;;;;;;;14.18;4.47;;;21.70;66.30;;;;;;5008663;28;20018;-76
2022/04/11 02:26:17;;;;;;;11.25;4.05;;;21.70;66.30;;;;;;5008280;28;20017;-76
2022/04/11 02:28:43;;;;;;;9.82;3.05;;;21.70;66.30;;;;;;5005410;28;20022;-75
2022/04/11 02:31:10;;;;;;;9.73;4.20;;;21.60;66.30;;;;;;5006215;28;20022;-73
2022/04/11 02:33:37;;;;;;;11.55;3.50;;;21.60;66.30;;;;;;5003816;28;20113;-76
2022/04/11 02:36:04;;;;;;;9.23;3.63;;;21.60;66.50;;;;;;5007671;28;20022;-77
2022/04/11 02:38:30;;;;;;;16.75;3.30;;;21.60;67.10;;;;;;5008055;28;21341;-78
2022/04/11 02:40:57;;;;;;;15.80;3.83;;;21.50;66.60;;;;;;5007660;28;20010;-77
2022/04/11 02:43:23;;;;;;;12.15;3.40;;;21.50;66.90;;;;;;5005377;28;20024;-76
2022/04/11 02:45:50;;;;;;;11.65;3.55;;;21.50;66.90;;;;;;5006275;28;20088;-77
2022/04/11 02:48:17;;;;;;;16.35;4.70;;;21.50;66.90;;;;;;5002540;28;20033;-77
2022/04/11 02:50:43;;;;;;;12.63;3.70;;;21.50;66.70;;;;;;5007620;28;20393;-76
2022/04/11 02:53:10;;;;;;;13.95;3.95;;;21.50;66.70;;;;;;5005668;28;20065;-74
2022/04/11 02:55:36;;;;;;;22.75;5.30;;;21.40;67.00;;;;;;5005055;28;20026;-76
2022/04/11 02:58:03;;;;;;;14.18;3.33;;;21.40;67.40;;;;;;5005921;28;20035;-77
2022/04/11 03:00:30;;;;;;;16.50;4.28;;;21.40;67.30;;;;;;5004143;28;20489;-76
2022/04/11 03:02:56;;;;;;;10.10;3.67;;;21.40;67.30;;;;;;5002733;28;20026;-78
2022/04/11 03:05:23;;;;;;;10.68;3.83;;;21.40;67.20;;;;;;5007338;28;20097;-79
2022/04/11 03:07:52;;;;;;;11.75;4.30;;;21.40;67.00;;;;;;5007612;28;20053;-77
2022/04/11 03:10:19;;;;;;;12.68;3.47;;;21.40;67.00;;;;;;5003519;28;20018;-76
2022/04/11 03:12:46;;;;;;;10.60;4.13;;;21.40;66.90;;;;;;5007705;28;20026;-74
2022/04/11 03:15:12;;;;;;;11.65;4.78;;;21.40;67.00;;;;;;5006675;28;20128;-79
2022/04/11 03:17:39;;;;;;;8.88;3.70;;;21.40;66.90;;;;;;5004860;28;20046;-79
2022/04/11 03:20:06;;;;;;;9.80;4.55;;;21.30;66.90;;;;;;5004878;28;20040;-79
2022/04/11 03:22:33;;;;;;;14.25;4.50;;;21.30;66.90;;;;;;5009398;28;20025;-79
2022/04/11 03:24:59;;;;;;;9.52;4.30;;;21.30;66.90;;;;;;5010001;28;20025;-77
2022/04/11 03:27:26;;;;;;;10.98;4.60;;;21.30;67.00;;;;;;5007601;28;20029;-77
2022/04/11 03:29:52;;;;;;;9.55;5.18;;;21.30;67.00;;;;;;5008744;28;20947;-78
2022/04/11 03:32:19;;;;;;;15.40;4.63;;;21.30;67.00;;;;;;5009441;28;20079;-78
2022/04/11 03:34:46;;;;;;;8.90;3.97;;;21.20;67.00;;;;;;5011369;28;20044;-78
2022/04/11 03:37:12;;;;;;;16.98;6.45;;;21.20;67.10;;;;;;5010332;28;20052;-76
2022/04/11 03:39:39;;;;;;;13.32;4.72;;;21.20;67.30;;;;;;5011357;28;20026;-77
2022/04/11 03:42:06;;;;;;;11.40;4.57;;;21.20;67.30;;;;;;5006749;28;20018;-76
2022/04/11 03:44:35;;;;;;;11.80;5.10;;;21.20;67.30;;;;;;5010537;28;20033;-77
2022/04/11 03:47:02;;;;;;;16.05;4.75;;;21.20;67.30;;;;;;5001285;28;20034;-78
2022/04/11 03:49:29;;;;;;;22.25;5.53;;;21.20;67.30;;;;;;5009358;28;20424;-74
2022/04/11 03:51:55;;;;;;;11.15;5.18;;;21.10;67.50;;;;;;5007563;28;20022;-73
2022/04/11 03:54:22;;;;;;;28.23;6.00;;;21.10;67.40;;;;;;5004635;28;20030;-76
2022/04/11 03:56:49;;;;;;;10.38;4.80;;;21.10;67.60;;;;;;5008382;28;20042;-75
2022/04/11 03:59:15;;;;;;;14.35;4.55;;;21.10;67.50;;;;;;5005760;28;20022;-74
2022/04/11 04:01:42;;;;;;;18.63;4.97;;;21.10;67.50;;;;;;5004669;28;20033;-76
2022/04/11 04:04:09;;;;;;;19.58;6.18;;;21.10;67.50;;;;;;5002693;28;20129;-75
2022/04/11 04:06:35;;;;;;;28.52;6.78;;;21.10;67.40;;;;;;5003495;28;20037;-79
2022/04/11 04:09:02;;;;;;;14.95;6.35;;;21.10;67.60;;;;;;5005572;28;20535;-77
2022/04/11 04:11:29;;;;;;;14.93;8.07;;;21.00;67.50;;;;;;5004867;28;20026;-75
2022/04/11 04:13:55;;;;;;;47.72;23.60;;;20.90;68.10;;;;;;5019031;28;20399;-70
2022/04/11 04:16:22;;;;;;;72.10;38.30;;;20.90;68.00;;;;;;5002022;28;20022;-69
2022/04/11 04:18:49;;;;;;;86.03;40.10;;;21.00;67.90;;;;;;5008964;28;20105;-74
2022/04/11 04:21:18;;;;;;;62.08;29.90;;;20.90;67.60;;;;;;5003832;28;20061;-71
2022/04/11 04:23:45;;;;;;;40.47;21.98;;;20.90;67.40;;;;;;5008144;28;20032;-73
2022/04/11 04:26:12;;;;;;;29.10;13.63;;;20.90;67.30;;;;;;5008216;28;20018;-71
2022/04/11 04:28:39;;;;;;;17.27;7.93;;;21.00;67.20;;;;;;5004057;28;20021;-69
2022/04/11 04:31:06;;;;;;;16.25;8.63;;;21.00;66.70;;;;;;5009955;28;20619;-71
2022/04/11 04:33:36;;;;;;;34.50;19.17;;;20.90;66.80;;;;;;5003338;28;20041;-72
2022/04/11 04:36:03;;;;;;;35.05;21.08;;;20.90;67.20;;;;;;5008799;28;20014;-71
2022/04/11 04:38:30;;;;;;;30.38;15.38;;;20.80;67.10;;;;;;5006689;28;20076;-73
2022/04/11 04:40:58;;;;;;;23.25;9.75;;;20.80;67.30;;;;;;5005493;28;20034;-72
2022/04/11 04:43:24;;;;;;;23.10;8.65;;;20.80;67.60;;;;;;5008278;28;20030;-76
2022/04/11 04:45:51;;;;;;;21.00;8.95;;;20.80;67.60;;;;;;5005123;28;20173;-75
2022/04/11 04:48:18;;;;;;;24.60;8.15;;;20.90;67.70;;;;;;5006226;28;20061;-77
2022/04/11 04:50:44;;;;;;;15.65;6.63;;;20.90;67.90;;;;;;5008057;28;20022;-73
2022/04/11 04:53:11;;;;;;;16.10;5.72;;;20.90;68.00;;;;;;5003360;28;20034;-73
2022/04/11 04:55:38;;;;;;;26.77;6.47;;;20.90;68.00;;;;;;5003693;28;20053;-76
2022/04/11 04:58:04;;;;;;;12.63;5.25;;;20.90;68.00;;;;;;5008279;28;20029;-75
2022/04/11 05:00:31;;;;;;;14.82;5.78;;;20.90;67.90;;;;;;5003634;28;20037;-72
2022/04/11 05:02:58;;;;;;;19.02;5.90;;;20.90;67.60;;;;;;5009182;28;20480;-73
2022/04/11 05:05:24;;;;;;;11.80;5.05;;;20.90;67.40;;;;;;5008725;28;20017;-71
2022/04/11 05:07:51;;;;;;;14.40;5.47;;;20.90;67.20;;;;;;5007254;28;20042;-74
2022/04/11 05:10:17;;;;;;;17.63;5.82;;;20.90;67.10;;;;;;5008229;28;20025;-72
2022/04/11 05:12:46;;;;;;;9.48;5.28;;;20.90;67.00;;;;;;5009405;28;20010;-73
2022/04/11 05:15:14;;;;;;;10.88;5.85;;;20.90;66.80;;;;;;5010238;28;20076;-72
2022/04/11 05:17:41;;;;;;;13.88;5.65;;;20.90;66.80;;;;;;5006218;28;20076;-72
2022/04/11 05:20:09;;;;;;;11.77;6.13;;;20.90;66.80;;;;;;5009612;28;20623;-72
2022/04/11 05:22:35;;;;;;;6.72;4.90;;;20.90;66.60;;;;;;5005739;28;20022;-73
2022/04/11 05:25:02;;;;;;;10.68;4.95;;;20.90;66.50;;;;;;5003764;28;20026;-74
2022/04/11 05:27:29;;;;;;;10.88;5.28;;;20.90;67.00;;;;;;5017859;28;20481;-73
2022/04/11 05:29:55;;;;;;;13.80;5.00;;;20.90;66.20;;;;;;5008895;28;20014;-73
2022/04/11 05:32:22;;;;;;;8.05;4.85;;;20.90;66.10;;;;;;5008190;28;20026;-73
2022/04/11 05:34:49;;;;;;;10.18;4.22;;;20.90;66.20;;;;;;5006736;28;20033;-72
2022/04/11 05:37:15;;;;;;;13.50;4.78;;;20.90;66.10;;;;;;5006354;28;20022;-72
2022/04/11 05:39:42;;;;;;;8.55;5.10;;;20.90;66.10;;;;;;5009281;28;20033;-74
2022/04/11 05:42:09;;;;;;;11.48;4.78;;;20.90;65.90;;;;;;5008022;28;20369;-73
2022/04/11 05:44:35;;;;;;;9.57;4.53;;;20.90;65.60;;;;;;5000663;28;20109;-74
2022/04/11 05:47:02;;;;;;;8.65;4.60;;;20.90;65.70;;;;;;5006218;28;20025;-72
2022/04/11 05:49:29;;;;;;;5.03;3.80;;;21.00;65.70;;;;;;5009341;28;20022;-73
2022/04/11 05:51:55;;;;;;;7.18;4.40;;;21.00;65.30;;;;;;5005348;28;20014;-73
2022/04/11 05:54:22;;;;;;;9.98;3.40;;;20.90;65.10;;;;;;5005318;28;20034;-73
2022/04/11 05:57:28;;;;;;;15.07;4.13;;;21.00;64.80;;;;;;5003988;28;20125;-72
2022/04/11 06:00:35;;;;;;;9.98;3.28;;;20.90;64.50;;;;;;5007485;28;20029;-74
2022/04/11 06:03:20;;;;;;;;;;;21.00;64.40;;;;;;5022405;28;20080;-73
2022/04/11 06:06:27;;;;;;;5.40;3.17;;;21.00;64.20;;;;;;5007318;28;19905;-74
2022/04/11 06:09:33;;;;;;;9.27;3.50;;;21.00;64.10;;;;;;5004892;28;20064;-71
2022/04/11 06:12:39;;;;;;;14.27;3.47;;;21.00;63.90;;;;;;5003226;28;20137;-72
2022/04/11 06:15:45;;;;;;;13.68;4.97;;;21.00;64.10;;;;;;5005183;28;20418;-72
2022/04/11 06:18:31;;;;;;;;;;;21.00;64.30;;;;;;5005267;28;20554;-74
2022/04/11 06:21:37;;;;;;;12.95;4.72;;;21.00;64.60;;;;;;5006070;28;19909;-74
2022/04/11 06:24:43;;;;;;;10.07;5.88;;;21.00;65.20;;;;;;5006136;28;20541;-73
2022/04/11 06:27:29;;;;;;;;;;;21.00;65.50;;;;;;5005366;28;20052;-75
2022/04/11 06:30:36;;;;;;;20.88;4.85;;;21.00;65.60;;;;;;5006637;28;19964;-72
2022/04/11 06:33:42;;;;;;;19.63;6.05;;;21.00;65.90;;;;;;5002997;28;20030;-72
2022/04/11 06:36:48;;;;;;;25.73;4.97;;;21.00;66.50;;;;;;5008081;28;20014;-72
2022/04/11 06:39:54;;;;;;;16.55;5.60;;;21.10;66.80;;;;;;5002745;28;20041;-72
2022/04/11 06:43:00;;;;;;;19.58;5.80;;;21.10;66.70;;;;;;5006682;28;20015;-72
2022/04/11 06:46:06;;;;;;;17.45;5.65;;;21.10;66.60;;;;;;5006792;28;20030;-74
2022/04/11 06:49:12;;;;;;;15.40;4.90;;;21.20;66.40;;;;;;5007585;28;20124;-74
2022/04/11 06:52:19;;;;;;;9.38;3.90;;;21.20;66.40;;;;;;5004233;28;20536;-72
2022/04/11 06:55:25;;;;;;;19.10;5.07;;;21.30;67.00;;;;;;5008061;28;20475;-71
2022/04/11 06:58:11;;;;;;;;;;;21.30;66.40;;;;;;5011492;28;20497;-72
2022/04/11 07:01:17;;;;;;;10.95;4.47;;;21.40;66.50;;;;;;5009001;28;19932;-73
2022/04/11 07:04:23;;;;;;;8.70;3.95;;;21.40;66.70;;;;;;5006269;28;20057;-72
2022/04/11 07:07:29;;;;;;;7.65;3.50;;;21.40;66.60;;;;;;5011293;28;20101;-72
2022/04/11 07:10:37;;;;;;;11.40;3.45;;;21.50;66.70;;;;;;5008314;28;20026;-73
2022/04/11 07:13:44;;;;;;;8.05;3.83;;;21.60;66.90;;;;;;5007133;28;20392;-74
2022/04/11 07:16:52;;;;;;;9.50;4.38;;;21.60;66.90;;;;;;5008018;28;20030;-71
2022/04/11 07:19:58;;;;;;;9.68;3.35;;;21.70;66.90;;;;;;5007673;28;20010;-73
2022/04/11 07:23:04;;;;;;;14.40;3.97;;;21.70;66.90;;;;;;5008810;28;20034;-72
2022/04/11 07:26:10;;;;;;;7.55;3.28;;;21.80;66.80;;;;;;5008421;28;20416;-72
2022/04/11 07:29:16;;;;;;;12.23;4.55;;;21.80;66.80;;;;;;5008714;28;20735;-71
2022/04/11 07:32:22;;;;;;;7.28;3.80;;;21.90;66.80;;;;;;5009680;28;20022;-72
2022/04/11 07:35:28;;;;;;;12.27;4.05;;;22.00;66.80;;;;;;5006853;28;20029;-74
2022/04/11 07:38:35;;;;;;;10.75;4.20;;;22.10;66.90;;;;;;5008486;28;20436;-72
2022/04/11 07:41:41;;;;;;;6.93;3.22;;;22.10;66.70;;;;;;5010182;28;20022;-72
2022/04/11 07:44:47;;;;;;;13.93;3.50;;;22.20;66.80;;;;;;5006345;28;20018;-72
2022/04/11 07:47:53;;;;;;;12.35;4.00;;;22.20;66.70;;;;;;5006026;28;20018;-74
2022/04/11 07:50:59;;;;;;;10.05;3.63;;;22.30;66.50;;;;;;5007680;28;20030;-72
2022/04/11 07:54:06;;;;;;;10.80;4.05;;;22.30;65.90;;;;;;5008171;28;20061;-71
2022/04/11 07:57:13;;;;;;;6.05;5.07;;;22.40;65.20;;;;;;5023125;28;20386;-71
2022/04/11 08:00:20;;;;;;;9.45;3.97;;;22.50;65.10;;;;;;5005463;28;20519;-72
2022/04/11 08:03:27;;;;;;;11.93;4.63;;;22.50;64.70;;;;;;5006522;28;20405;-71
2022/04/11 08:06:33;;;;;;;10.60;4.50;;;22.60;63.70;;;;;;5010675;28;20025;-72
2022/04/11 08:09:39;;;;;;;10.88;5.07;;;22.70;63.60;;;;;;5004625;28;20109;-72
2022/04/11 08:12:25;;;;;;;;;;;22.70;63.00;;;;;;5011347;28;20036;-71
2022/04/11 08:15:31;;;;;;;10.18;5.75;;;22.80;63.10;;;;;;5007967;28;20353;-71
2022/04/11 08:18:37;;;;;;;7.75;5.25;;;22.90;62.40;;;;;;5009457;28;20013;-74
2022/04/11 08:21:23;;;;;;;;;;;23.00;61.90;;;;;;5009819;28;20581;-71
2022/04/11 08:24:29;;;;;;;17.10;6.60;;;23.10;61.20;;;;;;5008388;28;19910;-71
2022/04/11 08:27:15;;;;;;;;;;;23.20;60.70;;;;;;5007056;28;20033;-72
2022/04/11 08:30:22;;;;;;;10.40;4.65;;;23.20;59.40;;;;;;5009482;28;19905;-71
2022/04/11 08:33:07;;;;;;;;;;;23.30;58.90;;;;;;5009477;28;20041;-71
2022/04/11 08:36:14;;;;;;;7.85;3.28;;;23.40;56.60;;;;;;5007217;28;20067;-72
2022/04/11 08:39:20;;;;;;;9.45;3.40;;;23.40;54.80;;;;;;5009358;28;20022;-73
2022/04/11 08:42:26;;;;;;;5.10;3.35;;;23.50;55.10;;;;;;5008756;28;20021;-72
2022/04/11 08:45:16;;;;;;;;;;;23.60;55.30;;;;;;5009566;28;20104;-74
2022/04/11 08:48:23;;;;;;;4.05;2.55;;;23.60;54.40;;;;;;5010231;28;20004;-71
2022/04/11 08:51:09;;;;;;;;;;;23.70;53.40;;;;;;5009062;28;20516;-71
2022/04/11 08:54:15;;;;;;;4.78;2.75;;;23.80;52.30;;;;;;5006939;28;19914;-71
2022/04/11 08:57:21;;;;;;;10.45;3.35;;;23.90;52.10;;;;;;5008287;28;20076;-72
2022/04/11 09:00:27;;;;;;;10.20;3.33;;;24.00;52.00;;;;;;5011166;28;20064;-72
2022/04/11 09:03:34;;;;;;;5.70;3.33;;;24.10;52.50;;;;;;5007711;28;20020;-71
2022/04/11 09:06:23;;;;;;;;;;;24.20;52.00;;;;;;5009080;28;20021;-71
2022/04/11 09:08:50;;;;;;;5.63;3.33;;;24.30;52.10;;;;;;5006799;28;20403;-74
2022/04/11 09:12:11;;;;;;;6.75;3.30;;;24.40;52.00;;;;;;5022110;28;20099;-72
2022/04/11 09:15:17;;;;;;;10.73;4.38;;;24.40;51.90;;;;;;5009022;28;20029;-70
2022/04/11 09:18:03;;;;;;;;;;;24.50;52.10;;;;;;5009176;28;20033;-71
2022/04/11 09:21:09;;;;;;;8.00;4.75;;;24.60;51.90;;;;;;5009180;28;19910;-71
2022/04/11 09:23:55;;;;;;;;;;;24.70;51.70;;;;;;5007826;28;20030;-71
2022/04/11 09:27:02;;;;;;;9.85;5.03;;;24.70;51.80;;;;;;5006393;28;20666;-71
2022/04/11 09:30:08;;;;;;;17.73;5.90;;;24.80;51.70;;;;;;5008717;28;20026;-74
2022/04/11 09:32:57;;;;;;;12.93;5.18;;;25.00;50.80;;;;;;5007090;28;20072;-71
2022/04/11 09:36:04;;;;;;;14.13;3.97;;;25.10;50.10;;;;;;5005713;28;20121;-73
2022/04/11 09:38:49;;;;;;;;;;;25.20;49.90;;;;;;5007051;28;20057;-71
2022/04/11 09:41:57;;;;;;;16.25;4.13;;;25.30;49.20;;;;;;5003185;28;19967;-72
2022/04/11 09:45:03;;;;;;;7.13;3.55;;;25.30;48.10;;;;;;5004783;28;20496;-71
2022/04/11 09:48:21;;;;;;;15.95;3.65;;;25.40;47.70;;;;;;5007016;28;20042;-72
2022/04/11 09:51:30;;;;;;;6.22;2.67;;;25.50;46.50;;;;;;5007447;28;20074;-71
2022/04/11 09:54:45;;;;;;;7.00;2.35;;;25.60;45.90;;;;;;5005448;28;20072;-71
2022/04/11 09:57:51;;;;;;;2.70;1.10;;;25.70;45.20;;;;;;5006089;28;20115;-71
2022/04/11 10:00:57;;;;;;;5.05;1.52;;;25.80;42.40;;;;;;5003383;28;20137;-72
2022/04/11 10:04:03;;;;;;;8.90;1.88;;;25.90;41.20;;;;;;5007042;28;20440;-71
2022/04/11 10:07:09;;;;;;;10.93;1.80;;;26.00;41.10;;;;;;5002697;28;20022;-71
2022/04/11 10:10:17;;;;;;;3.50;1.65;;;26.10;41.00;;;;;;5008110;28;20104;-71
2022/04/11 10:13:23;;;;;;;3.40;1.67;;;26.20;40.70;;;;;;5004751;28;20068;-73
2022/04/11 10:16:29;;;;;;;6.40;2.00;;;26.30;41.50;;;;;;5006681;28;20576;-72
2022/04/11 10:19:47;;;;;;;4.25;1.73;;;26.40;41.70;;;;;;5007542;28;20381;-70
2022/04/11 10:22:54;;;;;;;6.20;2.25;;;26.50;41.40;;;;;;5001699;28;20021;-71
2022/04/11 10:26:06;;;;;;;3.58;1.30;;;26.50;40.80;;;;;;5007539;28;20480;-71
2022/04/11 10:29:12;;;;;;;6.30;1.77;;;26.70;41.10;;;;;;5006811;28;20091;-71
2022/04/11 10:32:24;;;;;;;4.18;1.40;;;26.80;41.20;;;;;;5005700;28;20025;-72
2022/04/11 10:35:51;;;;;;;2.88;1.52;;;26.80;40.50;;;;;;5005934;28;20041;-71
2022/04/11 10:38:57;;;;;;;3.90;1.58;;;26.90;40.30;;;;;;5005237;28;20029;-70
2022/04/11 10:41:55;;;;;;;5.05;1.90;;;27.00;41.10;;;;;;5003330;28;20382;-74
2022/04/11 10:44:54;;;;;;;2.88;1.65;;;27.00;41.70;;;;;;5005769;28;20037;-72
2022/04/11 10:48:00;;;;;;;5.15;1.90;;;27.00;41.80;;;;;;5007506;28;20018;-71
2022/04/11 10:51:06;;;;;;;8.27;1.95;;;27.10;42.00;;;;;;5004556;28;20662;-72
2022/04/11 10:54:10;;;;;;;4.78;2.15;;;27.10;41.90;;;;;;5005390;28;20030;-71
2022/04/11 10:57:32;;;;;;;4.35;1.83;;;27.10;42.00;;;;;;5006206;28;20045;-71
2022/04/11 11:00:42;;;;;;;4.50;1.95;;;27.10;41.50;;;;;;5005906;28;20030;-72
2022/04/11 11:03:48;;;;;;;6.82;1.90;;;27.20;41.50;;;;;;5003821;28;20156;-71
2022/04/11 11:06:54;;;;;;;4.18;1.80;;;27.20;41.40;;;;;;5003349;28;20530;-71
2022/04/11 11:10:00;;;;;;;2.63;1.42;;;27.20;41.00;;;;;;5008691;28;20056;-71
2022/04/11 11:13:06;;;;;;;7.57;1.70;;;27.30;40.90;;;;;;5005529;28;20069;-72
2022/04/11 11:16:14;;;;;;;2.97;1.45;;;27.30;40.30;;;;;;5006745;28;20030;-71
2022/04/11 11:18:50;;;;;;;1.85;1.10;;;27.40;40.10;;;;;;5007058;28;20010;-71
2022/04/11 11:21:44;;;;;;;1.33;1.00;;;27.40;39.90;;;;;;4998279;28;20470;-71
2022/04/11 11:24:50;;;;;;;2.60;1.10;;;27.50;39.80;;;;;;5002900;28;20457;-75
2022/04/11 11:27:56;;;;;;;1.15;1.00;;;27.60;39.20;;;;;;5003404;28;20541;-73
2022/04/11 11:31:02;;;;;;;0.90;0.90;;;27.60;38.50;;;;;;5004914;28;20465;-71
2022/04/11 11:34:09;;;;;;;0.95;0.95;;;27.60;38.60;;;;;;5003897;28;20060;-71
2022/04/11 11:37:17;;;;;;;2.72;0.82;;;27.60;38.50;;;;;;5004344;28;20188;-72
2022/04/11 11:40:24;;;;;;;1.67;0.98;;;27.70;38.30;;;;;;5006644;28;20102;-72
2022/04/11 11:43:32;;;;;;;2.40;1.02;;;27.80;37.90;;;;;;5008274;28;20584;-73
2022/04/11 11:46:39;;;;;;;6.07;1.25;;;27.90;38.10;;;;;;5007347;28;20022;-72
2022/04/11 11:49:45;;;;;;;3.28;1.63;;;27.90;38.50;;;;;;5007296;28;20014;-72
2022/04/11 11:52:54;;;;;;;2.35;0.90;;;28.00;37.70;;;;;;5006373;28;20030;-72
2022/04/11 11:56:15;;;;;;;5.18;1.08;;;28.00;37.30;;;;;;5008593;28;20030;-72
2022/04/11 11:59:22;;;;;;;3.83;1.20;;;28.00;37.20;;;;;;5007884;28;20413;-74
2022/04/11 12:05:56;;;;;;;1.75;0.80;;;28.10;37.30;;;;;;5006679;28;20088;-72
2022/04/11 12:09:02;;;;;;;1.00;0.90;;;28.10;38.30;;;;;;5005822;28;20385;-73
2022/04/11 12:12:11;;;;;;;4.00;0.93;;;28.20;37.50;;;;;;5005217;28;20452;-72
2022/04/11 12:15:33;;;;;;;2.47;0.70;;;28.20;37.30;;;;;;5011102;28;20073;-73
2022/04/11 12:18:23;;;;;;;1.42;0.90;;;28.20;37.60;;;;;;4964845;28;20525;-71
2022/04/11 12:21:31;;;;;;;1.10;1.00;;;28.20;37.30;;;;;;5010643;28;20168;-74
2022/04/11 12:24:37;;;;;;;0.88;0.68;;;28.30;37.70;;;;;;5006893;28;20025;-72
2022/04/11 12:27:44;;;;;;;1.52;0.95;;;28.20;37.90;;;;;;5006975;28;20096;-72
2022/04/11 12:30:53;;;;;;;1.67;0.90;;;28.40;38.20;;;;;;5005834;28;20026;-73
2022/04/11 12:34:15;;;;;;;2.00;1.00;;;28.40;38.40;;;;;;5004358;28;20066;-73
2022/04/11 12:37:39;;;;;;;1.30;0.90;;;28.50;38.70;;;;;;5008392;28;20021;-72
2022/04/11 12:41:00;;;;;;;4.15;1.30;;;28.50;38.10;;;;;;5006917;28;20018;-72
2022/04/11 12:44:21;;;;;;;3.40;1.23;;;28.50;38.60;;;;;;5003443;28;20032;-74
2022/04/11 12:46:56;;;;;;;7.20;0.90;;;28.50;38.80;;;;;;5009000;28;20018;-71
2022/04/11 12:50:02;;;;;;;5.20;1.20;;;28.50;38.60;;;;;;5009210;28;20791;-73
2022/04/11 12:53:08;;;;;;;1.20;1.05;;;28.60;38.70;;;;;;5008953;28;20049;-74
2022/04/11 12:56:14;;;;;;;1.48;1.00;;;28.50;38.70;;;;;;5005526;28;20518;-72
2022/04/11 12:59:21;;;;;;;1.80;1.02;;;28.50;39.10;;;;;;5003940;28;20544;-71
2022/04/11 13:02:16;;;;;;;1.60;1.00;;;28.50;38.90;;;;;;5007423;28;20562;-73
2022/04/11 13:05:03;;;;;;;;;;;28.50;38.80;;;;;;5007367;28;20219;-73
2022/04/11 13:08:11;;;;;;;1.77;0.80;;;28.50;38.90;;;;;;5003170;28;19917;-72
2022/04/11 13:11:17;;;;;;;3.58;1.48;;;28.50;39.10;;;;;;5005458;28;20025;-74
2022/04/11 13:14:23;;;;;;;4.03;0.80;;;28.50;38.90;;;;;;5006270;28;20018;-72
2022/04/11 13:20:54;;;;;;;12.02;1.38;;;28.60;39.30;;;;;;5003834;28;20052;-73
2022/04/11 13:24:00;;;;;;;3.67;1.08;;;28.60;39.20;;;;;;5003610;28;20121;-72
2022/04/11 13:27:06;;;;;;;3.22;0.93;;;28.60;39.20;;;;;;5004954;28;20021;-73
2022/04/11 13:30:12;;;;;;;5.53;1.45;;;28.70;39.70;;;;;;5003857;28;20033;-74
2022/04/11 13:33:18;;;;;;;6.97;1.52;;;28.70;40.10;;;;;;5004423;28;20030;-72
2022/04/11 13:36:24;;;;;;;6.82;1.63;;;28.70;40.10;;;;;;5003131;28;20529;-72
2022/04/11 13:39:30;;;;;;;1.23;0.80;;;28.70;39.70;;;;;;5004008;28;20620;-72
2022/04/11 13:42:36;;;;;;;3.90;1.08;;;28.60;39.30;;;;;;5005324;28;20030;-72
2022/04/11 13:45:42;;;;;;;1.15;0.90;;;28.60;39.30;;;;;;5005442;28;20022;-71
2022/04/11 13:48:50;;;;;;;2.55;1.02;;;28.70;39.50;;;;;;5001884;28;20111;-75
2022/04/11 13:51:56;;;;;;;5.28;1.10;;;28.60;39.50;;;;;;5002025;28;20026;-74
2022/04/11 13:55:02;;;;;;;3.35;0.90;;;28.60;39.30;;;;;;5003250;28;20073;-73
2022/04/11 13:58:08;;;;;;;2.60;0.90;;;28.60;39.60;;;;;;5004901;28;20048;-72
2022/04/11 14:01:14;;;;;;;1.42;0.90;;;28.60;39.40;;;;;;5001785;28;20477;-75
2022/04/11 14:04:22;;;;;;;2.17;1.05;;;28.60;39.40;;;;;;5003445;28;20057;-71
2022/04/11 14:07:28;;;;;;;1.85;0.80;;;28.60;39.50;;;;;;5005161;28;20488;-74
2022/04/11 14:10:34;;;;;;;2.80;1.20;;;28.60;40.00;;;;;;5005074;28;20029;-74
2022/04/11 14:13:40;;;;;;;2.00;1.30;;;28.60;39.30;;;;;;5006133;28;20022;-74
2022/04/11 14:16:46;;;;;;;6.85;0.98;;;28.60;39.50;;;;;;5003563;28;20068;-72
2022/04/11 14:19:52;;;;;;;6.03;1.65;;;28.60;39.50;;;;;;5006774;28;20030;-72
2022/04/11 14:22:51;;;;;;;3.38;1.00;;;28.60;39.30;;;;;;5004654;28;20531;-73
2022/04/11 14:25:18;;;;;;;1.25;0.80;;;28.60;39.50;;;;;;5004010;28;20095;-73
2022/04/11 14:27:44;;;;;;;3.53;0.95;;;28.60;39.50;;;;;;5008707;28;20073;-73
2022/04/11 14:30:11;;;;;;;33.65;3.83;;;28.60;39.60;;;;;;5004119;28;20045;-72
2022/04/11 14:32:38;;;;;;;9.88;1.40;;;28.50;39.60;;;;;;5006167;28;20030;-74